Time;durP1;ratioP1;P1;durP2;ratioP2;P2;SDS_P1;SDS_P2;PMS_P1;PMS_P2;Temp;Humidity;BMP_temperature;BMP_pressure;BME280_temperature;BME280_humidity;BME280_pressure;Samples;Min_cycle;Max_cycle;Signal;HPM_P1;HPM_P2
2021/01/03 00:01:16;;;;;;;13.30;11.85;;;26.20;58.60;;;;;;4915616;28;20313;-49
2021/01/03 00:03:47;;;;;;;13.32;12.02;;;26.10;58.70;;;;;;4926830;28;20238;-49
2021/01/03 00:06:18;;;;;;;11.23;10.07;;;26.10;58.80;;;;;;4924477;28;20238;-49
2021/01/03 00:08:50;;;;;;;13.65;11.43;;;26.10;58.90;;;;;;4916199;28;20325;-49
2021/01/03 00:11:22;;;;;;;13.77;12.27;;;26.10;58.80;;;;;;4957888;28;20747;-54
2021/01/03 00:13:52;;;;;;;13.63;12.23;;;26.10;58.80;;;;;;4965499;28;20240;-49
2021/01/03 00:16:23;;;;;;;13.57;11.85;;;26.10;58.80;;;;;;4966024;28;20243;-49
2021/01/03 00:18:54;;;;;;;14.20;12.05;;;26.10;58.90;;;;;;4963467;28;20232;-50
2021/01/03 00:21:25;;;;;;;12.32;10.52;;;26.10;59.10;;;;;;4966575;28;20649;-52
2021/01/03 00:23:55;;;;;;;12.82;11.52;;;26.10;59.10;;;;;;4967374;28;20248;-54
2021/01/03 00:26:26;;;;;;;12.77;11.07;;;26.10;59.30;;;;;;4981958;28;20220;-51
2021/01/03 00:28:56;;;;;;;14.23;12.15;;;26.10;59.50;;;;;;4969816;28;20728;-49
2021/01/03 00:31:29;;;;;;;13.73;11.10;;;26.10;59.50;;;;;;4964358;28;20237;-53
2021/01/03 00:34:01;;;;;;;13.52;12.07;;;26.10;59.70;;;;;;4973374;28;20236;-49
2021/01/03 00:36:32;;;;;;;13.32;11.52;;;26.20;59.60;;;;;;4966804;28;20232;-49
2021/01/03 00:39:02;;;;;;;14.48;12.57;;;26.20;59.30;;;;;;4960310;28;20288;-53
2021/01/03 00:41:33;;;;;;;13.77;12.25;;;26.20;59.20;;;;;;4962977;28;20237;-51
2021/01/03 00:44:04;;;;;;;13.18;11.63;;;26.20;59.20;;;;;;4958598;28;20229;-51
2021/01/03 00:46:35;;;;;;;15.90;13.15;;;26.30;59.30;;;;;;4967127;28;20237;-51
2021/01/03 00:49:06;;;;;;;17.02;15.15;;;26.30;59.20;;;;;;4961967;28;20229;-50
2021/01/03 00:51:37;;;;;;;17.73;15.80;;;26.30;58.90;;;;;;4966068;28;20237;-50
2021/01/03 00:54:08;;;;;;;17.75;15.85;;;26.30;58.70;;;;;;4964925;28;20274;-49
2021/01/03 00:56:38;;;;;;;18.98;16.13;;;26.30;58.70;;;;;;4968929;28;20239;-49
2021/01/03 00:59:09;;;;;;;19.10;16.77;;;26.40;58.70;;;;;;4964116;28;20312;-50
2021/01/03 01:01:39;;;;;;;18.27;15.73;;;26.40;58.60;;;;;;4962778;28;20244;-54
2021/01/03 01:04:11;;;;;;;22.08;17.55;;;26.40;58.80;;;;;;4964053;28;20754;-49
2021/01/03 01:06:42;;;;;;;21.13;17.25;;;26.50;58.70;;;;;;4964741;28;20339;-51
2021/01/03 01:09:13;;;;;;;18.88;15.15;;;26.50;58.70;;;;;;4960634;28;20265;-51
2021/01/03 01:11:45;;;;;;;21.52;17.73;;;26.50;58.70;;;;;;4966311;28;20289;-53
2021/01/03 01:14:15;;;;;;;21.30;17.67;;;26.60;58.70;;;;;;4962619;28;20313;-49
2021/01/03 01:16:46;;;;;;;19.27;17.20;;;26.60;58.60;;;;;;4962372;28;20601;-54
2021/01/03 01:19:17;;;;;;;17.90;16.00;;;26.60;58.30;;;;;;4966369;28;20311;-53
2021/01/03 01:21:48;;;;;;;16.60;14.85;;;26.70;58.30;;;;;;4976912;28;20661;-52
2021/01/03 01:24:18;;;;;;;21.33;18.20;;;26.70;58.10;;;;;;4966097;28;20285;-50
2021/01/03 01:26:49;;;;;;;19.75;17.38;;;26.80;58.30;;;;;;4961563;28;20253;-49
2021/01/03 01:29:20;;;;;;;16.30;14.60;;;26.80;58.30;;;;;;4959957;28;20304;-52
2021/01/03 01:31:51;;;;;;;18.50;16.08;;;26.90;58.00;;;;;;4957066;28;20747;-49
2021/01/03 01:34:23;;;;;;;17.98;15.77;;;26.90;57.60;;;;;;4963620;28;20233;-49
2021/01/03 01:36:53;;;;;;;16.42;14.73;;;27.00;57.40;;;;;;4968432;28;20244;-52
2021/01/03 01:39:24;;;;;;;17.02;15.27;;;27.00;57.20;;;;;;4960589;28;20314;-51
2021/01/03 01:41:54;;;;;;;15.48;13.88;;;27.10;56.80;;;;;;4960065;28;20239;-51
2021/01/03 01:44:25;;;;;;;15.68;13.70;;;27.10;56.40;;;;;;4966405;28;20236;-52
2021/01/03 01:46:58;;;;;;;14.98;13.30;;;27.20;56.30;;;;;;4965122;28;20239;-49
2021/01/03 01:49:30;;;;;;;14.73;13.20;;;27.30;56.10;;;;;;4962305;28;20224;-52
2021/01/03 01:52:00;;;;;;;15.85;13.13;;;27.30;55.70;;;;;;4956456;28;20240;-55
2021/01/03 01:54:31;;;;;;;13.80;12.35;;;27.30;55.70;;;;;;4959649;28;20260;-50
2021/01/03 01:57:03;;;;;;;14.23;12.38;;;27.40;55.70;;;;;;4962834;28;20235;-53
2021/01/03 01:59:36;;;;;;;14.05;12.02;;;27.50;55.80;;;;;;4959877;28;20233;-51
2021/01/03 02:02:09;;;;;;;13.70;12.30;;;27.60;55.60;;;;;;4985955;28;20606;-53
2021/01/03 02:04:43;;;;;;;14.98;13.48;;;27.60;55.10;;;;;;4967697;28;20239;-54
2021/01/03 02:07:16;;;;;;;13.65;12.30;;;27.70;54.80;;;;;;4966094;28;20229;-52
2021/01/03 02:09:54;;;;;;;14.55;12.93;;;27.80;54.40;;;;;;4981991;28;20665;-52
2021/01/03 02:12:27;;;;;;;15.70;12.68;;;27.80;54.20;;;;;;4974173;28;20809;-51
2021/01/03 02:14:57;;;;;;;16.33;12.80;;;27.90;54.00;;;;;;4963428;28;20236;-50
2021/01/03 02:17:29;;;;;;;15.40;13.00;;;28.00;53.80;;;;;;4973202;28;20285;-49
2021/01/03 02:20:00;;;;;;;13.82;12.48;;;28.00;53.60;;;;;;4977128;28;20243;-51
2021/01/03 02:22:34;;;;;;;16.75;12.63;;;28.10;53.20;;;;;;4989349;28;20235;-54
2021/01/03 02:25:08;;;;;;;15.27;12.90;;;28.10;53.20;;;;;;4965452;28;21848;-53
2021/01/03 02:27:41;;;;;;;13.73;12.32;;;28.20;53.10;;;;;;4963037;28;20242;-51
2021/01/03 02:30:13;;;;;;;15.73;14.18;;;28.30;53.40;;;;;;4924382;28;20258;-54
2021/01/03 02:32:45;;;;;;;14.90;13.30;;;28.30;53.00;;;;;;4927161;28;20327;-52
2021/01/03 02:35:15;;;;;;;16.45;13.52;;;28.30;53.10;;;;;;4932898;28;20264;-52
2021/01/03 02:37:47;;;;;;;14.88;13.02;;;28.40;53.00;;;;;;4927578;28;20312;-51
2021/01/03 02:40:22;;;;;;;15.32;13.73;;;28.50;53.00;;;;;;4935676;28;20242;-50
2021/01/03 02:42:52;;;;;;;14.80;13.23;;;28.60;52.80;;;;;;4869698;28;20235;-50
2021/01/03 02:45:24;;;;;;;14.73;13.25;;;28.60;52.70;;;;;;4869510;28;20263;-50
2021/01/03 02:47:54;;;;;;;15.52;13.30;;;28.70;52.60;;;;;;4880829;28;20259;-52
2021/01/03 02:50:26;;;;;;;14.13;12.65;;;28.70;52.50;;;;;;4870045;29;20754;-51
2021/01/03 02:52:56;;;;;;;12.88;11.68;;;28.80;52.60;;;;;;4869923;28;20287;-51
2021/01/03 02:55:28;;;;;;;14.18;12.48;;;28.90;52.50;;;;;;4894477;28;20319;-52
2021/01/03 02:58:00;;;;;;;13.57;12.18;;;28.90;52.40;;;;;;4873298;28;20275;-50
2021/01/03 03:00:32;;;;;;;13.75;12.45;;;29.00;52.30;;;;;;4905472;28;20305;-50
2021/01/03 03:03:03;;;;;;;14.35;12.55;;;29.10;52.20;;;;;;4928427;28;20230;-52
2021/01/03 03:05:34;;;;;;;14.45;12.95;;;29.20;52.50;;;;;;4955807;28;20238;-51
2021/01/03 03:08:04;;;;;;;16.02;13.38;;;29.20;52.10;;;;;;4929499;28;20284;-52
2021/01/03 03:10:36;;;;;;;14.32;12.45;;;29.30;51.40;;;;;;4925879;28;20229;-51
2021/01/03 03:13:07;;;;;;;16.70;13.77;;;29.40;51.40;;;;;;4955988;28;20760;-51
2021/01/03 03:15:38;;;;;;;15.13;12.45;;;29.40;51.20;;;;;;4942821;28;20230;-53
2021/01/03 03:18:09;;;;;;;15.13;13.52;;;29.50;51.40;;;;;;4923240;28;20424;-54
2021/01/03 03:20:40;;;;;;;14.07;12.30;;;29.50;51.20;;;;;;4949883;28;20228;-49
2021/01/03 03:23:11;;;;;;;12.57;11.38;;;29.50;51.10;;;;;;4964926;28;20323;-53
2021/01/03 03:25:43;;;;;;;13.15;11.95;;;29.60;51.00;;;;;;4964855;28;20232;-54
2021/01/03 03:28:13;;;;;;;14.60;12.48;;;29.70;50.90;;;;;;4961461;28;20233;-53
2021/01/03 03:30:44;;;;;;;13.40;11.98;;;29.70;50.60;;;;;;4962938;28;20319;-50
2021/01/03 03:33:15;;;;;;;13.88;12.25;;;29.80;50.60;;;;;;4974550;28;20256;-53
2021/01/03 03:35:46;;;;;;;13.77;12.48;;;29.80;50.40;;;;;;4966542;28;20225;-56
2021/01/03 03:38:17;;;;;;;13.50;12.23;;;29.90;50.50;;;;;;4964132;28;20232;-53
2021/01/03 03:40:49;;;;;;;13.60;12.20;;;29.90;50.40;;;;;;4966486;28;20239;-50
2021/01/03 03:43:19;;;;;;;13.20;11.88;;;30.00;50.70;;;;;;4966573;28;20232;-54
2021/01/03 03:45:49;;;;;;;12.95;11.65;;;30.10;50.80;;;;;;4961226;28;20311;-54
2021/01/03 03:48:20;;;;;;;13.40;11.25;;;30.20;50.90;;;;;;4966265;28;20236;-52
2021/01/03 03:50:50;;;;;;;12.40;11.20;;;30.20;50.90;;;;;;4963149;28;20744;-54
2021/01/03 03:53:20;;;;;;;11.77;10.70;;;30.30;50.80;;;;;;4961071;28;20780;-55
2021/01/03 03:55:53;;;;;;;13.25;11.73;;;30.40;50.70;;;;;;4967632;28;20228;-54
2021/01/03 03:58:24;;;;;;;14.35;12.85;;;30.50;51.00;;;;;;4956126;28;20244;-53
2021/01/03 04:00:56;;;;;;;13.18;11.93;;;30.60;51.20;;;;;;4966889;28;20693;-50
2021/01/03 04:03:26;;;;;;;14.88;12.43;;;30.60;50.50;;;;;;4961775;28;20586;-55
2021/01/03 04:05:57;;;;;;;13.48;12.23;;;30.70;50.20;;;;;;4961778;28;20320;-52
2021/01/03 04:08:27;;;;;;;12.77;11.48;;;30.80;50.00;;;;;;4968903;28;20256;-55
2021/01/03 04:10:59;;;;;;;13.43;12.25;;;30.80;50.00;;;;;;4958396;28;20233;-54
2021/01/03 04:13:30;;;;;;;13.30;11.98;;;30.80;49.90;;;;;;4909881;29;20270;-54
2021/01/03 04:16:01;;;;;;;12.68;11.43;;;31.00;50.00;;;;;;4961223;28;20299;-50
2021/01/03 04:18:32;;;;;;;13.30;12.00;;;31.00;49.60;;;;;;4918082;29;20762;-50
2021/01/03 04:21:02;;;;;;;13.57;12.18;;;31.10;49.60;;;;;;4925054;28;20265;-51
2021/01/03 04:23:32;;;;;;;12.60;11.40;;;31.20;49.10;;;;;;4922383;28;20698;-49
2021/01/03 04:26:04;;;;;;;12.20;10.98;;;31.20;49.40;;;;;;4918764;28;20258;-56
2021/01/03 04:28:35;;;;;;;12.55;11.35;;;31.30;49.70;;;;;;4921755;29;20327;-51
2021/01/03 04:31:06;;;;;;;13.40;12.00;;;31.30;49.00;;;;;;4909675;29;20234;-50
2021/01/03 04:33:38;;;;;;;13.93;12.48;;;31.40;48.90;;;;;;4921353;29;20653;-52
2021/01/03 04:36:12;;;;;;;14.98;13.52;;;31.40;48.70;;;;;;4927453;28;20240;-52
2021/01/03 04:38:43;;;;;;;12.55;11.45;;;31.40;48.30;;;;;;4934847;28;20313;-51
2021/01/03 04:41:19;;;;;;;12.95;11.52;;;31.50;48.70;;;;;;4908854;28;20320;-51
2021/01/03 04:43:49;;;;;;;13.57;12.18;;;31.50;49.00;;;;;;4928223;28;20252;-53
2021/01/03 04:46:21;;;;;;;14.65;13.18;;;31.40;48.60;;;;;;4955876;28;20233;-50
2021/01/03 04:48:52;;;;;;;13.68;11.70;;;31.50;48.60;;;;;;4957836;28;20573;-55
2021/01/03 04:51:28;;;;;;;12.93;11.63;;;31.50;48.80;;;;;;4919089;28;20238;-54
2021/01/03 04:54:03;;;;;;;14.40;12.90;;;31.50;49.10;;;;;;4926508;28;20226;-53
2021/01/03 04:56:38;;;;;;;13.45;12.15;;;31.60;48.70;;;;;;4920032;28;20249;-51
2021/01/03 04:59:11;;;;;;;13.52;12.23;;;31.70;48.40;;;;;;4868504;28;20286;-51
2021/01/03 05:02:18;;;;;;;13.75;12.55;;;31.80;48.80;;;;;;4870669;29;20239;-55
2021/01/03 05:04:58;;;;;;;12.25;11.23;;;31.80;48.50;;;;;;4869229;29;20319;-52
2021/01/03 05:07:30;;;;;;;13.65;12.20;;;31.90;48.40;;;;;;4869493;28;20731;-52
2021/01/03 05:10:09;;;;;;;13.82;12.05;;;31.90;48.50;;;;;;4877000;29;20232;-52
2021/01/03 05:12:46;;;;;;;13.93;12.30;;;32.00;48.70;;;;;;4835282;29;20257;-51
2021/01/03 05:15:22;;;;;;;13.43;12.18;;;32.10;48.00;;;;;;4833083;29;20317;-53
2021/01/03 05:17:53;;;;;;;12.90;11.43;;;32.10;47.50;;;;;;4787225;29;20238;-55
2021/01/03 05:20:24;;;;;;;11.82;10.73;;;32.20;47.80;;;;;;4785380;29;20239;-53
2021/01/03 05:22:54;;;;;;;12.15;10.90;;;32.20;48.00;;;;;;4814999;29;20246;-54
2021/01/03 05:25:40;;;;;;;12.77;11.48;;;32.30;48.10;;;;;;4823214;29;22041;-52
2021/01/03 05:28:15;;;;;;;11.98;10.77;;;32.30;47.70;;;;;;4819255;29;20242;-53
2021/01/03 05:30:45;;;;;;;14.45;11.25;;;32.40;47.30;;;;;;4819977;29;20228;-55
2021/01/03 05:33:17;;;;;;;12.75;11.45;;;32.40;47.40;;;;;;4835125;29;20252;-50
2021/01/03 05:35:47;;;;;;;12.77;11.48;;;32.50;47.00;;;;;;4831211;29;20248;-51
2021/01/03 05:38:36;;;;;;;13.50;12.20;;;32.60;47.20;;;;;;4834698;29;20237;-51
2021/01/03 05:41:15;;;;;;;14.43;13.02;;;32.60;48.00;;;;;;4822496;29;20665;-56
2021/01/03 05:43:49;;;;;;;12.00;10.88;;;32.70;47.40;;;;;;4858448;28;20917;-50
2021/01/03 05:46:21;;;;;;;12.40;11.20;;;32.70;47.60;;;;;;4894743;28;20330;-56
2021/01/03 05:49:00;;;;;;;11.52;10.48;;;32.80;47.70;;;;;;4910858;28;20713;-54
2021/01/03 05:51:37;;;;;;;14.38;13.07;;;32.90;48.20;;;;;;4941165;29;20233;-55
2021/01/03 05:54:10;;;;;;;13.75;12.40;;;33.00;46.40;;;;;;4944476;28;20324;-52
2021/01/03 05:56:43;;;;;;;12.02;10.77;;;33.00;46.50;;;;;;4959690;28;20641;-52
2021/01/03 05:59:17;;;;;;;13.63;11.77;;;33.00;46.40;;;;;;4917739;29;20262;-52
2021/01/03 06:01:50;;;;;;;13.07;11.82;;;33.10;46.40;;;;;;4920265;28;20237;-53
2021/01/03 06:04:23;;;;;;;12.88;11.40;;;33.10;46.70;;;;;;4923605;29;20340;-52
2021/01/03 06:07:13;;;;;;;13.50;12.13;;;33.20;46.60;;;;;;4927497;29;20241;-52
2021/01/03 06:09:45;;;;;;;12.32;11.13;;;33.20;46.00;;;;;;4927760;29;20313;-53
2021/01/03 06:12:17;;;;;;;11.98;10.82;;;33.30;45.90;;;;;;4928094;29;20266;-53
2021/01/03 06:14:51;;;;;;;11.90;10.63;;;33.30;46.20;;;;;;4928107;29;20249;-51
2021/01/03 06:17:35;;;;;;;11.05;9.98;;;33.30;46.20;;;;;;4885999;29;21122;-56
2021/01/03 06:20:09;;;;;;;12.77;10.93;;;33.40;46.10;;;;;;4887233;29;20234;-54
2021/01/03 06:22:42;;;;;;;11.48;10.38;;;33.40;46.00;;;;;;4886706;29;20246;-55
2021/01/03 06:25:41;;;;;;;11.02;9.93;;;33.50;46.20;;;;;;4886825;29;20763;-51
2021/01/03 06:28:19;;;;;;;12.73;11.52;;;33.50;46.40;;;;;;4888160;29;20713;-52
2021/01/03 06:30:55;;;;;;;12.10;11.10;;;33.60;45.60;;;;;;4970536;28;20672;-51
2021/01/03 06:33:55;;;;;;;12.30;11.05;;;33.70;45.40;;;;;;4985057;28;20235;-50
2021/01/03 06:36:32;;;;;;;10.10;9.20;;;33.70;45.60;;;;;;4889461;29;20274;-53
2021/01/03 06:39:07;;;;;;;11.32;10.32;;;33.70;46.10;;;;;;4891422;28;20830;-51
2021/01/03 06:41:47;;;;;;;11.10;10.07;;;33.70;44.80;;;;;;4889478;29;20262;-55
2021/01/03 06:44:48;;;;;;;10.30;9.30;;;33.80;45.20;;;;;;4880588;28;20239;-53
2021/01/03 06:47:56;;;;;;;9.90;8.90;;;33.80;45.10;;;;;;4890168;29;20236;-56
2021/01/03 06:50:55;;;;;;;11.93;10.30;;;33.90;45.60;;;;;;4942771;28;20234;-54
2021/01/03 06:54:18;;;;;;;9.77;8.77;;;33.90;45.00;;;;;;4932934;28;20312;-54
2021/01/03 06:57:15;;;;;;;10.38;9.20;;;33.90;44.70;;;;;;4966152;28;20240;-54
2021/01/03 07:00:19;;;;;;;10.90;8.90;;;34.00;45.20;;;;;;4965101;28;20279;-56
2021/01/03 07:02:52;;;;;;;10.93;9.60;;;34.10;45.40;;;;;;4941225;28;20795;-51
2021/01/03 07:05:23;;;;;;;10.57;9.68;;;34.10;44.80;;;;;;4945970;28;20249;-52
2021/01/03 07:08:03;;;;;;;12.05;10.85;;;34.10;44.80;;;;;;4987871;28;20284;-56
2021/01/03 07:10:35;;;;;;;9.80;8.90;;;34.20;44.30;;;;;;4961053;28;20245;-50
2021/01/03 07:13:20;;;;;;;11.32;9.80;;;34.20;44.80;;;;;;4965947;28;20317;-53
2021/01/03 07:15:52;;;;;;;11.65;10.52;;;34.20;44.70;;;;;;4967534;28;20350;-53
2021/01/03 07:18:27;;;;;;;11.65;10.48;;;34.30;44.40;;;;;;4961332;28;20248;-51
2021/01/03 07:21:03;;;;;;;10.75;9.65;;;34.30;44.20;;;;;;4944390;28;20247;-53
2021/01/03 07:23:37;;;;;;;11.48;10.27;;;34.40;44.50;;;;;;4946607;29;20252;-50
2021/01/03 07:26:16;;;;;;;11.65;9.70;;;34.40;44.90;;;;;;4945321;28;20229;-52
2021/01/03 07:28:49;;;;;;;9.80;8.88;;;34.40;44.80;;;;;;4939664;28;20233;-50
2021/01/03 07:31:50;;;;;;;10.55;9.60;;;34.50;44.70;;;;;;4952457;28;20252;-52
2021/01/03 07:34:27;;;;;;;12.02;10.70;;;34.60;44.50;;;;;;4924514;29;20266;-51
2021/01/03 07:36:58;;;;;;;12.65;11.35;;;34.70;45.00;;;;;;4922527;29;20356;-54
2021/01/03 07:39:40;;;;;;;11.40;10.35;;;34.70;45.30;;;;;;4928536;28;20245;-52
2021/01/03 07:42:22;;;;;;;11.63;10.52;;;34.80;44.70;;;;;;4893672;29;20232;-51
2021/01/03 07:44:52;;;;;;;11.93;10.82;;;34.90;44.50;;;;;;4893848;29;20680;-55
2021/01/03 07:47:36;;;;;;;11.88;10.60;;;34.90;44.00;;;;;;4893315;29;20767;-54
2021/01/03 07:50:40;;;;;;;11.60;10.50;;;34.90;44.10;;;;;;4894048;29;20291;-55
2021/01/03 07:53:26;;;;;;;12.85;11.75;;;35.00;44.10;;;;;;4869850;29;20243;-52
2021/01/03 07:56:12;;;;;;;11.48;10.35;;;35.00;43.50;;;;;;4899929;29;20235;-51
2021/01/03 07:58:45;;;;;;;12.63;11.32;;;35.00;43.50;;;;;;4928094;28;20950;-53
2021/01/03 08:01:17;;;;;;;12.30;11.10;;;35.00;42.90;;;;;;4947516;28;20268;-52
2021/01/03 08:03:48;;;;;;;14.27;12.95;;;35.00;43.40;;;;;;4890467;28;20244;-55
2021/01/03 08:06:19;;;;;;;16.05;14.43;;;35.00;43.50;;;;;;4896702;28;20318;-55
2021/01/03 08:08:54;;;;;;;14.02;12.73;;;35.00;43.60;;;;;;4919607;29;20308;-56
2021/01/03 08:11:29;;;;;;;15.07;13.63;;;35.00;43.70;;;;;;4913619;29;20341;-52
2021/01/03 08:14:00;;;;;;;14.20;12.85;;;35.10;43.60;;;;;;4913800;28;20241;-51
2021/01/03 08:16:31;;;;;;;12.98;11.70;;;35.10;43.50;;;;;;4920608;28;20787;-52
2021/01/03 08:19:04;;;;;;;12.07;10.98;;;35.10;43.50;;;;;;4943630;28;20254;-52
2021/01/03 08:21:36;;;;;;;12.13;11.02;;;35.20;43.50;;;;;;4919743;29;20297;-51
2021/01/03 08:24:08;;;;;;;12.77;11.65;;;35.20;43.60;;;;;;4916911;28;20269;-52
2021/01/03 08:26:43;;;;;;;12.35;11.32;;;35.20;43.50;;;;;;4917994;29;20234;-53
2021/01/03 08:29:19;;;;;;;10.93;9.93;;;35.30;43.70;;;;;;4953621;28;20235;-51
2021/01/03 08:31:50;;;;;;;10.50;9.55;;;35.30;43.50;;;;;;4929613;28;20355;-52
2021/01/03 08:34:25;;;;;;;9.77;8.98;;;35.40;43.40;;;;;;4941294;29;20233;-48
2021/01/03 08:36:56;;;;;;;10.60;9.50;;;35.40;43.30;;;;;;4943360;29;20322;-52
2021/01/03 08:39:29;;;;;;;11.65;10.45;;;35.50;43.10;;;;;;4889677;29;20247;-52
2021/01/03 08:42:02;;;;;;;10.80;9.80;;;35.50;42.80;;;;;;4924244;28;20279;-52
2021/01/03 08:44:35;;;;;;;9.45;8.48;;;35.60;42.90;;;;;;4920315;28;20323;-55
2021/01/03 08:47:07;;;;;;;11.88;9.95;;;35.60;43.20;;;;;;4881998;29;20227;-50
2021/01/03 08:49:37;;;;;;;11.07;9.98;;;35.60;42.90;;;;;;4889959;28;20891;-52
2021/01/03 08:52:17;;;;;;;10.50;9.23;;;35.70;43.20;;;;;;4882826;29;20325;-54
2021/01/03 08:54:48;;;;;;;9.52;8.73;;;35.70;42.90;;;;;;4854483;29;20237;-54
2021/01/03 08:57:20;;;;;;;8.88;8.10;;;35.70;42.80;;;;;;4877143;29;20316;-53
2021/01/03 08:59:53;;;;;;;11.00;9.30;;;35.70;42.60;;;;;;4899914;29;20233;-52
2021/01/03 09:02:25;;;;;;;8.95;8.13;;;35.70;42.40;;;;;;4865140;29;20309;-51
2021/01/03 09:04:57;;;;;;;10.23;9.23;;;35.70;42.60;;;;;;4895253;28;20237;-52
2021/01/03 09:07:27;;;;;;;11.00;9.18;;;35.70;42.70;;;;;;4911696;28;20239;-53
2021/01/03 09:09:59;;;;;;;9.38;8.50;;;35.80;42.90;;;;;;4903752;28;20284;-53
2021/01/03 09:12:40;;;;;;;8.95;8.05;;;35.80;42.70;;;;;;4947419;28;20241;-50
2021/01/03 09:15:13;;;;;;;8.93;8.02;;;35.80;42.40;;;;;;4946913;28;20237;-52
2021/01/03 09:17:44;;;;;;;9.00;8.10;;;35.80;42.20;;;;;;4971881;28;20305;-51
2021/01/03 09:20:22;;;;;;;8.63;7.82;;;35.80;42.60;;;;;;4956115;28;20594;-50
2021/01/03 09:22:54;;;;;;;10.57;8.23;;;35.80;42.50;;;;;;4962761;28;20672;-53
2021/01/03 09:25:27;;;;;;;9.98;8.98;;;35.80;42.70;;;;;;4924285;29;20313;-51
2021/01/03 09:27:59;;;;;;;8.55;7.82;;;35.80;42.80;;;;;;4923728;28;20289;-52
2021/01/03 09:30:31;;;;;;;8.82;7.53;;;35.80;42.60;;;;;;4930800;28;20288;-50
2021/01/03 09:33:22;;;;;;;8.57;7.45;;;35.80;42.70;;;;;;4919953;28;20641;-51
2021/01/03 09:36:01;;;;;;;8.40;7.60;;;35.90;42.70;;;;;;4984451;28;20236;-53
2021/01/03 09:38:52;;;;;;;9.80;7.82;;;35.90;42.30;;;;;;4985136;28;20314;-51
2021/01/03 09:41:34;;;;;;;8.90;7.93;;;35.90;42.30;;;;;;4919559;29;20646;-51
2021/01/03 09:44:16;;;;;;;8.55;6.88;;;35.80;42.30;;;;;;4872075;29;20326;-52
2021/01/03 09:46:52;;;;;;;8.65;7.72;;;35.90;42.60;;;;;;4872657;29;20242;-51
2021/01/03 09:49:28;;;;;;;9.80;8.35;;;36.00;42.70;;;;;;4870809;29;20318;-52
2021/01/03 09:52:03;;;;;;;9.23;8.30;;;36.10;42.50;;;;;;4870723;29;20351;-56
2021/01/03 09:54:39;;;;;;;9.48;8.52;;;36.20;42.80;;;;;;4872468;29;20235;-52
2021/01/03 09:57:12;;;;;;;10.13;7.80;;;36.30;43.00;;;;;;4915482;29;20232;-51
2021/01/03 09:59:44;;;;;;;8.85;7.57;;;36.50;42.70;;;;;;4915484;29;20254;-54
2021/01/03 10:02:18;;;;;;;9.18;7.82;;;36.50;42.00;;;;;;4812389;29;20245;-54
2021/01/03 10:04:48;;;;;;;9.23;8.10;;;36.60;41.70;;;;;;4813759;29;20332;-53
2021/01/03 10:07:20;;;;;;;8.57;7.63;;;36.60;41.30;;;;;;4813725;29;20249;-51
2021/01/03 10:09:55;;;;;;;9.98;9.07;;;36.50;41.40;;;;;;4854077;29;20260;-52
2021/01/03 10:12:33;;;;;;;10.45;9.45;;;36.40;41.50;;;;;;4880448;29;20557;-54
2021/01/03 10:15:07;;;;;;;9.02;8.13;;;36.30;41.50;;;;;;4908684;29;20769;-50
2021/01/03 10:17:38;;;;;;;8.70;7.80;;;36.20;41.70;;;;;;4922462;29;20264;-53
2021/01/03 10:20:32;;;;;;;8.73;7.88;;;36.10;42.20;;;;;;4917501;28;20747;-51
2021/01/03 10:23:04;;;;;;;10.07;7.35;;;36.10;42.60;;;;;;4887057;29;20235;-50
2021/01/03 10:25:34;;;;;;;8.90;7.25;;;36.30;43.00;;;;;;4880809;29;20231;-50
2021/01/03 10:28:11;;;;;;;8.32;7.63;;;36.50;43.20;;;;;;4940961;29;20342;-52
2021/01/03 10:30:43;;;;;;;9.43;8.45;;;36.70;42.60;;;;;;4960517;28;20240;-53
2021/01/03 10:33:13;;;;;;;8.80;7.93;;;37.00;42.20;;;;;;4942601;28;20389;-53
2021/01/03 10:35:44;;;;;;;9.60;7.78;;;37.20;41.70;;;;;;4948891;29;20327;-54
2021/01/03 10:38:15;;;;;;;8.65;7.82;;;37.40;41.40;;;;;;4950627;28;20248;-51
2021/01/03 10:40:45;;;;;;;7.78;7.07;;;37.50;41.20;;;;;;4949598;28;20249;-51
2021/01/03 10:43:17;;;;;;;10.75;8.95;;;37.60;41.20;;;;;;4948283;28;20567;-52
2021/01/03 10:45:49;;;;;;;10.77;7.80;;;37.60;40.60;;;;;;4946229;28;20858;-56
2021/01/03 10:48:19;;;;;;;9.45;8.48;;;37.60;41.20;;;;;;4946083;28;20241;-56
2021/01/03 10:50:50;;;;;;;12.40;8.82;;;37.60;40.50;;;;;;4977946;28;20721;-53
2021/01/03 10:53:20;;;;;;;11.55;9.02;;;37.50;40.50;;;;;;4949118;28;20235;-55
2021/01/03 10:55:51;;;;;;;10.45;9.35;;;37.30;40.60;;;;;;4979659;28;20739;-53
2021/01/03 10:58:22;;;;;;;12.60;9.85;;;37.10;40.60;;;;;;4970680;28;20845;-52
2021/01/03 11:00:54;;;;;;;10.00;8.88;;;36.90;40.70;;;;;;4961981;28;20248;-57
2021/01/03 11:03:24;;;;;;;10.23;9.13;;;36.70;41.10;;;;;;4963493;28;20247;-57
2021/01/03 11:05:55;;;;;;;11.10;9.73;;;36.50;41.50;;;;;;4962845;28;20665;-50
2021/01/03 11:08:25;;;;;;;9.98;8.75;;;36.20;41.60;;;;;;4966487;28;20232;-52
2021/01/03 11:10:56;;;;;;;8.70;7.47;;;36.00;41.80;;;;;;4964516;28;20844;-50
2021/01/03 11:13:26;;;;;;;8.13;7.07;;;35.90;42.10;;;;;;4966698;28;20232;-50
2021/01/03 11:15:58;;;;;;;7.03;6.43;;;35.60;42.70;;;;;;4964761;28;20715;-50
2021/01/03 11:18:29;;;;;;;7.75;6.97;;;35.50;43.00;;;;;;4959429;28;20229;-50
2021/01/03 11:21:00;;;;;;;17.35;13.30;;;35.30;43.30;;;;;;4968707;28;20693;-50
2021/01/03 11:23:31;;;;;;;14.80;13.30;;;35.20;43.40;;;;;;4964719;28;20229;-54
2021/01/03 11:26:02;;;;;;;19.30;14.15;;;35.10;43.50;;;;;;4966372;28;20239;-50
2021/01/03 11:28:33;;;;;;;13.70;11.65;;;34.90;44.00;;;;;;4966225;28;20732;-53
2021/01/03 11:31:05;;;;;;;12.25;10.00;;;34.80;44.30;;;;;;4962485;28;20229;-55
2021/01/03 11:33:35;;;;;;;9.52;8.63;;;34.70;44.30;;;;;;4965517;28;20228;-55
2021/01/03 11:36:07;;;;;;;9.43;8.55;;;34.60;44.70;;;;;;4962983;28;20708;-52
2021/01/03 11:38:37;;;;;;;9.73;8.73;;;34.50;45.10;;;;;;4944977;29;20233;-53
2021/01/03 11:41:08;;;;;;;9.23;8.32;;;34.40;45.70;;;;;;4942690;28;20272;-49
2021/01/03 11:43:39;;;;;;;10.90;9.85;;;34.30;46.10;;;;;;4906988;28;20642;-50
2021/01/03 11:46:11;;;;;;;15.05;10.52;;;34.20;46.60;;;;;;4905442;28;20313;-49
2021/01/03 11:48:41;;;;;;;12.98;11.52;;;34.10;47.00;;;;;;4906035;28;20349;-52
2021/01/03 11:51:12;;;;;;;11.02;10.02;;;34.00;47.90;;;;;;4905812;28;20941;-56
2021/01/03 11:53:43;;;;;;;12.57;11.27;;;33.90;47.50;;;;;;4905728;28;20306;-53
2021/01/03 11:56:13;;;;;;;14.20;12.80;;;33.80;47.80;;;;;;4904719;28;20222;-52
2021/01/03 11:58:44;;;;;;;16.30;12.60;;;33.80;48.80;;;;;;4984150;28;20234;-52
2021/01/03 12:01:17;;;;;;;16.55;14.70;;;33.70;48.50;;;;;;4984247;28;20362;-51
2021/01/03 12:03:50;;;;;;;15.88;14.10;;;33.50;48.70;;;;;;4983485;28;20307;-53
2021/01/03 12:06:21;;;;;;;14.88;13.32;;;33.50;48.80;;;;;;4987777;28;20255;-56
2021/01/03 12:08:57;;;;;;;13.88;12.52;;;33.40;49.00;;;;;;4984848;28;20708;-52
2021/01/03 12:11:30;;;;;;;14.48;12.95;;;33.40;49.30;;;;;;4983607;28;20232;-52
2021/01/03 12:14:01;;;;;;;17.42;15.10;;;33.30;49.60;;;;;;4988568;28;20661;-57
2021/01/03 12:16:33;;;;;;;22.15;18.92;;;33.20;49.70;;;;;;5038985;28;20281;-54
2021/01/03 12:19:04;;;;;;;16.40;14.63;;;33.10;50.10;;;;;;5042835;28;20258;-55
2021/01/03 12:21:34;;;;;;;13.80;12.38;;;33.10;50.10;;;;;;5041457;28;20233;-51
2021/01/03 12:24:06;;;;;;;13.98;12.52;;;33.00;50.20;;;;;;5040149;28;20231;-51
2021/01/03 12:26:36;;;;;;;12.65;11.45;;;32.90;50.70;;;;;;5039488;28;20232;-53
2021/01/03 12:29:09;;;;;;;12.43;10.88;;;32.90;50.60;;;;;;5019979;28;20279;-52
2021/01/03 12:31:42;;;;;;;11.82;10.70;;;32.80;51.00;;;;;;4952063;28;20271;-50
2021/01/03 12:34:12;;;;;;;11.73;10.52;;;32.70;51.30;;;;;;4957155;28;20230;-51
2021/01/03 12:36:43;;;;;;;13.68;12.32;;;32.70;51.40;;;;;;4959442;28;20237;-52
2021/01/03 12:39:14;;;;;;;12.82;11.57;;;32.60;51.60;;;;;;4958239;28;20746;-53
2021/01/03 12:41:45;;;;;;;13.40;12.02;;;32.50;51.80;;;;;;4956908;28;20233;-53
2021/01/03 12:44:16;;;;;;;12.40;11.13;;;32.50;52.10;;;;;;4961504;28;20224;-53
2021/01/03 12:46:47;;;;;;;11.52;10.50;;;32.40;52.20;;;;;;4960563;28;20690;-55
2021/01/03 12:49:17;;;;;;;12.35;11.25;;;32.40;52.30;;;;;;4964640;28;20244;-50
2021/01/03 12:51:51;;;;;;;13.48;12.13;;;32.30;52.40;;;;;;4958619;28;20232;-53
2021/01/03 12:54:22;;;;;;;13.45;12.05;;;32.20;52.60;;;;;;5037773;28;20281;-53
2021/01/03 12:56:52;;;;;;;14.13;12.82;;;32.20;52.70;;;;;;5037457;28;20230;-50
2021/01/03 12:59:23;;;;;;;14.63;11.65;;;32.10;52.90;;;;;;5034669;28;20344;-55
2021/01/03 13:01:55;;;;;;;13.38;12.00;;;32.10;53.00;;;;;;5043519;28;20241;-54
2021/01/03 13:04:46;;;;;;;13.93;12.52;;;32.00;53.20;;;;;;5036605;28;20854;-51